Sks Mersey — LAXA5 — position and weather

sailwx.info

Track history (hours):
 
Tides and Currents Weather Stations Pressure Air Temp Water Temp Dewpoint Dewpoint Depression Visibility Wind Speed Wind Dir Waves Ship Positions

Sks Mersey

Last reported at 2017-Nov-15 00:29 UTC. Time now 2017-Nov-18 17:26 UTC.
Position N 28°48' W 014°44'.

Length 250 m; draft 9.6 m.

Type: Tanker. MMSI: 258786000.

Date/timePositionNaut miles runAvg speedWind from/ knotsBaromVisibWave heightAir tempDewpointWater temp
2017-Nov-15 00:29N 28°48' W 014°44'3 5.7
2017-Nov-14 23:55N 28°46' W 014°47'2 5.4
2017-Nov-14 23:30N 28°44' W 014°49'3 5.4
2017-Nov-14 22:53N 28°41' W 014°51'4 5.7
2017-Nov-14 22:11N 28°38' W 014°54'1 5.8
2017-Nov-14 21:55N 28°37' W 014°55'3 5.9
2017-Nov-14 21:30N 28°35' W 014°56'3 5.7
2017-Nov-14 21:00N 28°33' W 014°58'3 5.6
2017-Nov-14 20:30N 28°31' W 015°00'3 5.8
2017-Nov-14 20:00N 28°28' W 015°02'3 6.0
2017-Nov-14 19:30N 28°26' W 015°04'3 6.0
2017-Nov-14 19:00N 28°24' W 015°07'3 6.0
2017-Nov-14 18:30N 28°22' W 015°09'3 6.1
2017-Nov-14 18:00N 28°19' W 015°12'3 5.9
2017-Nov-14 17:30N 28°17' W 015°14'3 5.9
2017-Nov-14 17:00N 28°15' W 015°16'3 6.1
2017-Nov-14 16:30N 28°13' W 015°18'3 6.2
2017-Nov-14 16:00N 28°10' W 015°21'3 5.4
2017-Nov-14 15:30N 28°08' W 015°22'0 0.9
2017-Nov-14 15:00N 28°08' W 015°22'0 0.9
2017-Nov-14 14:30N 28°08' W 015°21'3 6.1
2017-Nov-14 14:00N 28°06' W 015°19'4 8.9
2017-Nov-14 13:30N 28°02' W 015°16'5 9.6
2017-Nov-14 13:00N 27°57' W 015°16'5 9.7
2017-Nov-14 12:30N 27°52' W 015°16'5 9.8
2017-Nov-14 12:00N 27°47' W 015°16'510.7
2017-Nov-14 11:30N 27°42' W 015°16'510.4
2017-Nov-14 11:00N 27°37' W 015°16'  
Track history (hours):
 
Tides and Currents Weather Stations Pressure Air Temp Water Temp Dewpoint Dewpoint Depression Visibility Wind Speed Wind Dir Waves Ship Positions

Sks Mersey

Last reported at 2017-Nov-15 00:29 UTC. Time now 2017-Nov-18 17:26 UTC.
Position N 28°48' W 014°44'.

Length 250 m; draft 9.6 m.

Type: Tanker. MMSI: 258786000.

Date/timePositionNaut miles runAvg speedWind from/ knotsBaromVisibWave heightAir tempDewpointWater temp
2017-Nov-15 00:29N 28°48' W 014°44'3 5.7
2017-Nov-14 23:55N 28°46' W 014°47'2 5.4
2017-Nov-14 23:30N 28°44' W 014°49'3 5.4
2017-Nov-14 22:53N 28°41' W 014°51'4 5.7
2017-Nov-14 22:11N 28°38' W 014°54'1 5.8
2017-Nov-14 21:55N 28°37' W 014°55'3 5.9
2017-Nov-14 21:30N 28°35' W 014°56'3 5.7
2017-Nov-14 21:00N 28°33' W 014°58'3 5.6
2017-Nov-14 20:30N 28°31' W 015°00'3 5.8
2017-Nov-14 20:00N 28°28' W 015°02'3 6.0
2017-Nov-14 19:30N 28°26' W 015°04'3 6.0
2017-Nov-14 19:00N 28°24' W 015°07'3 6.0
2017-Nov-14 18:30N 28°22' W 015°09'3 6.1
2017-Nov-14 18:00N 28°19' W 015°12'3 5.9
2017-Nov-14 17:30N 28°17' W 015°14'3 5.9
2017-Nov-14 17:00N 28°15' W 015°16'3 6.1
2017-Nov-14 16:30N 28°13' W 015°18'3 6.2
2017-Nov-14 16:00N 28°10' W 015°21'3 5.4
2017-Nov-14 15:30N 28°08' W 015°22'0 0.9
2017-Nov-14 15:00N 28°08' W 015°22'0 0.9
2017-Nov-14 14:30N 28°08' W 015°21'3 6.1
2017-Nov-14 14:00N 28°06' W 015°19'4 8.9
2017-Nov-14 13:30N 28°02' W 015°16'5 9.6
2017-Nov-14 13:00N 27°57' W 015°16'5 9.7
2017-Nov-14 12:30N 27°52' W 015°16'5 9.8
2017-Nov-14 12:00N 27°47' W 015°16'510.7
2017-Nov-14 11:30N 27°42' W 015°16'510.4
2017-Nov-14 11:00N 27°37' W 015°16'  

Dump ship's entire track history